createdAt,value
2019-01-19T00:02:22.811Z,11.83
2019-01-19T00:05:10.531Z,11.73
2019-01-19T00:07:43.800Z,11.50
2019-01-19T00:10:29.723Z,13.10
2019-01-19T00:13:16.111Z,12.07
2019-01-19T00:15:59.091Z,13.47
2019-01-19T00:18:45.343Z,11.93
2019-01-19T00:21:48.059Z,12.23
2019-01-19T00:24:23.500Z,12.23
2019-01-19T00:27:17.051Z,12.87
2019-01-19T00:30:08.327Z,12.47
2019-01-19T00:32:59.039Z,12.13
2019-01-19T00:35:47.259Z,12.07
2019-01-19T00:38:27.816Z,12.57
2019-01-19T00:41:14.792Z,13.23
2019-01-19T00:43:53.583Z,13.33
2019-01-19T00:46:47.904Z,14.03
2019-01-19T00:49:28.311Z,13.90
2019-01-19T00:52:22.036Z,12.90
2019-01-19T00:54:55.980Z,12.63
2019-01-19T00:57:41.288Z,13.13
2019-01-19T01:00:16.360Z,12.70
2019-01-19T01:03:02.958Z,11.83
2019-01-19T01:05:35.371Z,12.20
2019-01-19T01:08:35.344Z,11.13
2019-01-19T01:11:10.332Z,11.13
2019-01-19T01:14:06.956Z,10.60
2019-01-19T01:16:46.249Z,11.33
2019-01-19T01:19:33.883Z,10.97
2019-01-19T01:22:20.360Z,11.20
2019-01-19T01:25:04.909Z,11.63
2019-01-19T01:27:59.072Z,11.68
2019-01-19T01:30:43.876Z,10.87
2019-01-19T01:33:31.504Z,11.07
2019-01-19T01:36:09.693Z,11.20
2019-01-19T01:38:51.165Z,10.50
2019-01-19T01:41:31.645Z,10.90
2019-01-19T01:44:06.653Z,11.50
2019-01-19T01:46:52.872Z,12.23
2019-01-19T01:49:39.353Z,12.13
2019-01-19T01:55:33.768Z,12.00
2019-01-19T01:58:21.385Z,12.17
2019-01-19T02:01:09.330Z,10.73
2019-01-19T02:03:56.953Z,11.80
2019-01-19T02:06:45.062Z,11.90
2019-01-19T02:09:32.660Z,11.20
2019-01-19T02:12:20.421Z,11.53
2019-01-19T02:15:08.057Z,10.57
2019-01-19T02:17:55.701Z,11.53
2019-01-19T02:23:50.189Z,11.83
2019-01-19T02:29:44.641Z,11.80
2019-01-19T03:26:34.800Z,11.70
2019-01-19T03:29:22.575Z,10.27
2019-01-19T04:11:08.195Z,11.20
2019-01-19T04:13:55.811Z,10.67
2019-01-19T04:16:43.664Z,10.13
2019-01-19T04:19:31.356Z,10.23
2019-01-19T04:22:19.355Z,10.70
2019-01-19T04:25:06.988Z,9.07
2019-01-19T04:27:54.763Z,9.23
2019-01-19T04:30:42.367Z,8.97
2019-01-19T05:41:54.044Z,9.60
2019-01-19T05:44:41.661Z,9.90
2019-01-19T05:47:29.536Z,9.10
2019-01-19T05:50:17.173Z,10.43
2019-01-19T05:53:04.793Z,10.57
2019-01-19T05:55:52.440Z,11.80
2019-01-19T05:58:40.041Z,11.90
2019-01-19T06:04:22.354Z,9.00
2019-01-19T06:07:09.974Z,9.33
2019-01-19T06:09:57.611Z,9.27
2019-01-19T06:12:45.295Z,8.83
2019-01-19T06:15:32.922Z,9.03
2019-01-19T06:18:20.621Z,8.53
2019-01-19T06:24:03.324Z,10.27
2019-01-19T06:41:32.517Z,13.90
2019-01-19T06:44:01.033Z,11.97
2019-01-19T06:46:48.630Z,11.27
2019-01-19T06:49:36.522Z,10.97
2019-01-19T06:52:24.338Z,10.00
2019-01-19T06:55:12.251Z,9.63
2019-01-19T06:57:59.874Z,9.53
2019-01-19T07:00:47.502Z,9.70
2019-01-19T07:03:35.118Z,9.57
2019-01-19T07:06:22.766Z,10.00
2019-01-19T07:09:10.394Z,10.53
2019-01-19T07:11:58.297Z,10.70
2019-01-19T07:14:45.926Z,11.90
2019-01-19T07:17:33.533Z,11.03
2019-01-19T07:20:21.201Z,10.33
2019-01-19T07:23:08.958Z,10.37
2019-01-19T07:25:56.794Z,10.47
2019-01-19T07:28:44.422Z,11.90
2019-01-19T07:31:32.434Z,11.33
2019-01-19T07:34:20.069Z,10.30
2019-01-19T08:15:39.222Z,11.60
2019-01-19T08:18:26.855Z,14.93
2019-01-19T08:21:14.746Z,11.20
2019-01-19T08:24:02.359Z,11.03
2019-01-19T08:26:49.987Z,10.37
2019-01-19T08:29:37.726Z,10.83
2019-01-19T08:32:25.750Z,10.23
2019-01-19T08:35:15.087Z,9.90
2019-01-19T08:38:02.712Z,9.30
2019-01-19T08:40:50.315Z,9.23
2019-01-19T08:43:40.467Z,9.67
2019-01-19T08:46:28.079Z,11.40
2019-01-19T08:49:15.731Z,10.47
2019-01-19T08:52:03.461Z,9.57
2019-01-19T08:54:51.076Z,9.07
2019-01-19T08:57:38.791Z,8.73
2019-01-19T09:53:46.311Z,5.40
2019-01-19T09:56:33.915Z,6.37
2019-01-19T09:59:21.551Z,6.13
2019-01-19T10:25:53.795Z,5.40
2019-01-19T10:28:42.331Z,5.63
2019-01-19T10:31:29.967Z,4.90
2019-01-19T10:34:17.575Z,6.07
2019-01-19T10:37:05.212Z,5.80
2019-01-19T10:39:52.963Z,5.60
2019-01-19T10:42:40.589Z,5.53
2019-01-19T10:45:28.275Z,5.47
2019-01-19T10:48:15.903Z,5.17
2019-01-19T10:51:03.499Z,5.37
2019-01-19T10:53:51.112Z,5.30
2019-01-19T10:56:38.723Z,4.77
2019-01-19T10:59:26.363Z,5.90
2019-01-19T11:02:13.963Z,5.50
2019-01-19T11:05:01.780Z,5.70
2019-01-19T11:10:57.850Z,4.90
2019-01-19T11:13:46.163Z,4.80
2019-01-19T11:16:33.791Z,4.80
2019-01-19T11:19:21.402Z,4.53
2019-01-19T11:22:09.074Z,4.00
2019-01-19T11:24:56.672Z,4.50
2019-01-19T14:42:13.234Z,5.57
2019-01-19T14:45:00.872Z,4.87
2019-01-19T14:48:00.556Z,4.60
2019-01-19T14:50:42.887Z,7.00
2019-01-19T14:53:18.324Z,5.63
2019-01-19T14:56:01.943Z,5.07
2019-01-19T14:58:41.071Z,3.90
2019-01-19T15:01:27.517Z,3.90
2019-01-19T15:04:17.835Z,4.30
2019-01-19T15:07:05.331Z,4.33
2019-01-19T15:09:42.208Z,6.20
2019-01-19T15:12:24.391Z,5.07
2019-01-19T15:15:10.811Z,5.23
2019-01-19T15:18:01.488Z,5.33
2019-01-19T15:20:37.431Z,5.73
2019-01-19T15:23:14.180Z,7.27
2019-01-19T15:25:48.756Z,6.80
2019-01-19T15:28:35.415Z,7.77
2019-01-19T15:31:11.099Z,6.03
2019-01-19T15:34:01.831Z,6.20
2019-01-19T15:36:49.553Z,6.67
2019-01-19T15:39:30.855Z,6.77
2019-01-19T15:42:17.175Z,6.23
2019-01-19T15:44:55.043Z,9.07
2019-01-19T15:48:00.823Z,7.37
2019-01-19T15:51:03.840Z,6.33
2019-01-19T15:53:38.001Z,6.40
2019-01-19T15:56:24.824Z,6.47
2019-01-19T15:58:57.976Z,7.50
2019-01-19T16:02:05.374Z,6.83
2019-01-19T16:04:56.228Z,6.80
2019-01-19T16:07:38.096Z,6.50
2019-01-19T16:10:28.740Z,7.70
2019-01-19T16:13:16.370Z,9.87
2019-01-19T16:16:12.856Z,18.97
2019-01-19T16:19:00.869Z,25.40
2019-01-19T16:21:40.965Z,15.37
2019-01-19T16:24:15.324Z,18.30
2019-01-19T16:26:49.690Z,20.03
2019-01-19T16:29:23.192Z,11.67
2019-01-19T16:31:56.754Z,11.73
2019-01-19T16:34:43.146Z,12.80
2019-01-19T16:37:15.573Z,11.93
2019-01-19T16:39:54.770Z,11.93
2019-01-19T16:42:28.099Z,11.27
2019-01-19T16:45:25.008Z,9.50
2019-01-19T16:48:11.515Z,9.90
2019-01-19T16:50:48.164Z,9.57
2019-01-19T16:53:28.080Z,9.87
2019-01-19T16:56:09.961Z,8.67
2019-01-19T16:59:09.929Z,8.80
2019-01-19T17:01:57.632Z,8.88
2019-01-19T17:04:39.692Z,8.77
2019-01-19T17:07:21.365Z,9.50
2019-01-19T17:10:09.097Z,13.00
2019-01-19T17:12:48.461Z,11.13
2019-01-19T17:15:54.496Z,13.20
2019-01-19T17:18:42.208Z,11.63
2019-01-19T17:21:27.158Z,10.77
2019-01-19T17:24:17.966Z,13.80
2019-01-19T17:27:08.780Z,10.17
2019-01-19T17:30:15.285Z,11.20
2019-01-19T17:33:03.661Z,10.73
2019-01-19T17:35:54.797Z,11.03
2019-01-19T17:38:35.745Z,10.23
2019-01-19T17:41:22.218Z,7.90
2019-01-19T17:44:04.135Z,8.93
2019-01-19T17:46:40.985Z,9.20
2019-01-19T17:49:22.989Z,8.53
2019-01-19T17:52:10.649Z,10.90
2019-01-19T17:54:49.877Z,11.23
2019-01-19T17:57:31.213Z,8.93
2019-01-19T18:00:18.330Z,11.93
2019-01-19T18:03:09.418Z,15.47
2019-01-19T18:05:52.062Z,14.43
2019-01-19T18:08:48.873Z,11.60
2019-01-19T18:11:28.560Z,9.53
2019-01-19T18:14:16.353Z,9.57
2019-01-19T18:17:06.868Z,8.67
2019-01-19T18:19:43.088Z,9.40
2019-01-19T18:22:21.929Z,8.47
2019-01-19T18:25:09.392Z,8.70
2019-01-19T18:27:58.719Z,9.60
2019-01-19T18:30:32.672Z,9.47
2019-01-19T18:33:13.044Z,12.53
2019-01-19T18:35:47.260Z,12.63
2019-01-19T18:38:40.796Z,10.40
2019-01-19T18:41:31.008Z,9.00
2019-01-19T18:44:10.166Z,8.67
2019-01-19T18:46:56.825Z,8.77
2019-01-19T18:49:50.697Z,8.63
2019-01-19T18:52:41.252Z,7.50
2019-01-19T18:55:34.753Z,7.40
2019-01-19T18:58:25.752Z,7.53
2019-01-19T19:01:12.284Z,7.60
2019-01-19T19:03:59.988Z,7.00
2019-01-19T19:06:36.244Z,6.10
2019-01-19T19:09:12.040Z,7.00
2019-01-19T19:11:48.656Z,7.43
2019-01-19T19:14:24.516Z,8.27
2019-01-19T19:17:04.325Z,8.90
2019-01-19T19:20:01.032Z,7.93
2019-01-19T19:22:48.792Z,9.27
2019-01-19T19:25:35.332Z,8.83
2019-01-19T19:28:25.744Z,8.33
2019-01-19T19:31:25.758Z,7.43
2019-01-19T19:33:56.865Z,7.93
2019-01-19T19:36:43.137Z,7.20
2019-01-19T19:39:33.548Z,8.80
2019-01-19T19:42:23.009Z,7.47
2019-01-19T19:45:04.472Z,6.83
2019-01-19T19:47:41.961Z,7.17
2019-01-19T19:50:18.308Z,8.00
2019-01-19T19:52:46.814Z,7.67
2019-01-19T19:55:14.573Z,8.13
2019-01-19T19:57:43.241Z,8.33
2019-01-19T20:00:12.465Z,9.07
2019-01-19T20:02:40.877Z,8.00
2019-01-19T20:05:09.453Z,7.47
2019-01-19T20:07:37.941Z,7.03
2019-01-19T20:10:07.305Z,9.00
2019-01-19T20:12:35.815Z,10.50
2019-01-19T20:15:05.346Z,10.60
2019-01-19T20:17:33.866Z,9.80
2019-01-19T20:20:02.426Z,8.87
2019-01-19T20:22:30.907Z,9.33
2019-01-19T20:24:59.414Z,9.53
2019-01-19T20:27:27.897Z,10.73
2019-01-19T20:29:56.313Z,9.90
2019-01-19T20:32:24.779Z,10.43
2019-01-19T20:34:53.350Z,13.70
2019-01-19T20:37:21.924Z,15.53
2019-01-19T20:39:50.465Z,9.63
2019-01-19T20:42:18.954Z,9.90
2019-01-19T20:44:47.425Z,10.47
2019-01-19T20:47:15.940Z,12.07
2019-01-19T20:50:03.634Z,17.83
2019-01-19T20:53:10.394Z,20.93
2019-01-19T20:55:58.006Z,16.17
2019-01-19T20:58:45.637Z,14.63
2019-01-19T21:01:33.262Z,17.43
2019-01-19T21:04:20.982Z,17.53
2019-01-19T21:07:08.666Z,19.07
2019-01-19T21:09:37.263Z,15.37
2019-01-19T21:12:24.966Z,13.40
2019-01-19T21:14:53.574Z,15.30
2019-01-19T21:17:41.258Z,18.40
2019-01-19T21:20:28.958Z,28.57
2019-01-19T21:23:16.582Z,15.00
2019-01-19T21:26:04.322Z,11.43
2019-01-19T21:28:32.779Z,19.10
2019-01-19T21:31:20.426Z,21.63
2019-01-19T21:34:08.318Z,20.83
2019-01-19T21:36:55.987Z,20.97
2019-01-19T21:39:25.326Z,18.47
2019-01-19T21:42:13.014Z,16.07
2019-01-19T21:45:00.659Z,15.83
2019-01-19T21:47:48.380Z,16.27
2019-01-19T21:50:41.326Z,15.93
2019-01-19T21:59:12.419Z,10.70
2019-01-19T22:02:00.044Z,9.90
2019-01-19T22:04:28.975Z,9.90
2019-01-19T22:06:57.508Z,10.07
2019-01-19T22:09:26.139Z,11.00
2019-01-19T22:12:14.087Z,10.77
2019-01-19T22:15:01.988Z,10.30
2019-01-19T22:20:40.112Z,9.50
2019-01-19T22:23:28.184Z,9.30
2019-01-19T22:29:11.811Z,10.50
2019-01-19T22:31:59.827Z,10.80
2019-01-19T22:34:47.479Z,10.10
2019-01-19T22:37:35.179Z,10.27
2019-01-19T22:43:16.240Z,9.60
2019-01-19T22:46:03.847Z,9.73
2019-01-19T22:48:51.463Z,11.47
2019-01-19T23:18:04.868Z,11.23
2019-01-19T23:20:52.588Z,11.63
2019-01-19T23:23:40.292Z,12.03
2019-01-19T23:26:28.084Z,10.83
2019-01-19T23:29:15.742Z,12.33
2019-01-19T23:32:03.533Z,11.47
2019-01-19T23:34:51.204Z,11.40
2019-01-19T23:37:38.865Z,12.00
2019-01-19T23:40:26.480Z,10.13
2019-01-19T23:46:07.854Z,10.77
2019-01-19T23:48:55.488Z,12.00
